Murtala Muhammed International Airport

Airport
ICAO code: 
DNMM
IATA Code: 
LOS
Summary
ICAO Region: 
AFI
Territory: 
Location: 
Ikeja, Lagos State
Serving: 
Lagos
Elevation: 
135 ft
Coordinates: 
Aerial View: 
6° 34' 40.44" N, 3° 19' 17.616" E
Metar
Observation
DNMM 011300Z 23006KT 9999 BKN014 33/26 Q1009 NOSIG
Station
Lagos / Ikeja
Date/Time
2021-12-01 13:00:00
Wind direction
230°
Wind speed
06 kts
Lowest cloud amount
broken clouds
Temperature
33°C
Dew point
26°C
Humidity
66%
QNH
1009 hPa
Weather condition
n/a

International airport serving Lagos, Nigeria.

Climatology

Tropical Savanna climate (Köppen climate classification Aw)

Runways

Designator Length Width Surface Rops
18L/36R 2742 45 ASP Yes/Yes
18R/36L 3900 60 ASP Yes/Yes
Airport map: 
Aerial View: 

SKYbrary Partners:

Safety knowledge contributed by: